createdAt,value
2022-09-22T00:04:18.348Z,100.00
2022-09-22T00:09:21.334Z,100.00
2022-09-22T00:14:28.317Z,100.00
2022-09-22T00:19:31.085Z,100.00
2022-09-22T00:24:33.553Z,100.00
2022-09-22T00:29:35.209Z,100.00
2022-09-22T00:34:36.789Z,100.00
2022-09-22T00:39:38.352Z,100.00
2022-09-22T00:44:44.277Z,100.00
2022-09-22T00:50:14.216Z,100.00
2022-09-22T00:55:24.740Z,100.00
2022-09-22T01:00:26.478Z,100.00
2022-09-22T01:05:30.273Z,100.00
2022-09-22T01:10:32.110Z,100.00
2022-09-22T01:15:47.178Z,100.00
2022-09-22T01:20:54.790Z,100.00
2022-09-22T01:26:17.872Z,100.00
2022-09-22T01:31:43.688Z,100.00
2022-09-22T01:37:07.405Z,100.00
2022-09-22T01:42:15.311Z,100.00
2022-09-22T01:47:24.317Z,100.00
2022-09-22T01:52:29.645Z,100.00
2022-09-22T01:57:40.015Z,100.00
2022-09-22T02:02:53.035Z,100.00
2022-09-22T02:07:57.063Z,100.00
2022-09-22T02:13:00.569Z,100.00
2022-09-22T02:18:09.371Z,100.00
2022-09-22T02:23:10.930Z,100.00
2022-09-22T02:28:18.105Z,100.00
2022-09-22T02:33:23.622Z,100.00
2022-09-22T02:38:59.860Z,100.00
2022-09-22T02:44:13.427Z,100.00
2022-09-22T02:49:18.323Z,100.00
2022-09-22T02:54:20.955Z,100.00
2022-09-22T02:59:22.540Z,100.00
2022-09-22T03:04:24.480Z,100.00
2022-09-22T03:09:26.320Z,100.00
2022-09-22T03:14:27.890Z,100.00
2022-09-22T03:19:29.496Z,100.00
2022-09-22T03:24:31.426Z,100.00
2022-09-22T03:29:33.098Z,100.00
2022-09-22T03:34:34.670Z,100.00
2022-09-22T03:39:36.232Z,100.00
2022-09-22T03:44:37.792Z,100.00
2022-09-22T03:49:39.310Z,100.00
2022-09-22T03:54:40.842Z,100.00
2022-09-22T03:59:42.588Z,100.00
2022-09-22T04:04:44.409Z,100.00
2022-09-22T04:09:46.018Z,100.00
2022-09-22T04:14:47.531Z,100.00
2022-09-22T04:19:49.664Z,100.00
2022-09-22T04:24:51.378Z,100.00
2022-09-22T04:29:53.010Z,100.00
2022-09-22T04:34:54.643Z,100.00
2022-09-22T04:39:56.347Z,100.00
2022-09-22T04:45:01.953Z,100.00
2022-09-22T04:50:03.810Z,100.00
2022-09-22T04:55:05.913Z,100.00
2022-09-22T05:00:08.286Z,100.00
2022-09-22T05:05:10.268Z,100.00
2022-09-22T05:10:17.918Z,100.00
2022-09-22T05:15:20.712Z,100.00
2022-09-22T05:20:22.441Z,100.00
2022-09-22T05:25:24.160Z,100.00
2022-09-22T05:30:26.879Z,100.00
2022-09-22T05:35:30.819Z,100.00
2022-09-22T05:40:36.051Z,100.00
2022-09-22T05:45:37.708Z,100.00
2022-09-22T05:50:39.416Z,100.00
2022-09-22T05:55:41.634Z,100.00
2022-09-22T06:00:43.384Z,100.00
2022-09-22T06:05:45.722Z,100.00
2022-09-22T06:10:49.053Z,100.00
2022-09-22T06:15:50.705Z,100.00
2022-09-22T06:20:56.056Z,100.00
2022-09-22T06:25:59.260Z,100.00
2022-09-22T06:31:01.170Z,100.00
2022-09-22T06:36:02.842Z,100.00
2022-09-22T06:41:06.889Z,100.00
2022-09-22T06:46:10.969Z,100.00
2022-09-22T06:51:14.189Z,100.00
2022-09-22T06:56:17.228Z,100.00
2022-09-22T07:01:19.673Z,100.00
2022-09-22T07:06:22.459Z,100.00
2022-09-22T07:11:24.054Z,100.00
2022-09-22T07:16:26.784Z,100.00
2022-09-22T07:21:37.614Z,100.00
2022-09-22T07:26:39.796Z,100.00
2022-09-22T07:31:42.016Z,100.00
2022-09-22T07:36:44.134Z,100.00
2022-09-22T07:41:46.834Z,100.00
2022-09-22T07:46:48.692Z,100.00
2022-09-22T07:51:54.995Z,99.00
2022-09-22T07:56:58.924Z,99.48
2022-09-22T08:02:01.267Z,97.54
2022-09-22T08:07:02.928Z,94.08
2022-09-22T08:12:04.576Z,95.43
2022-09-22T08:17:06.927Z,94.76
2022-09-22T08:22:10.903Z,94.67
2022-09-22T08:27:12.719Z,94.49
2022-09-22T08:32:19.260Z,94.73
2022-09-22T08:37:23.217Z,91.71
2022-09-22T08:42:28.452Z,92.29
2022-09-22T08:48:02.726Z,86.61
2022-09-22T08:53:10.028Z,87.41
2022-09-22T08:58:34.394Z,82.99
2022-09-22T09:03:46.294Z,82.87
2022-09-22T09:08:50.956Z,78.66
2022-09-22T09:13:58.729Z,76.17
2022-09-22T09:19:33.845Z,77.28
2022-09-22T09:30:17.951Z,71.54
2022-09-22T09:35:29.598Z,66.86
2022-09-22T09:40:31.249Z,65.92
2022-09-22T09:45:51.692Z,67.66
2022-09-22T09:50:53.282Z,66.06
2022-09-22T09:55:54.819Z,65.85
2022-09-22T10:00:59.349Z,67.16
2022-09-22T10:06:09.296Z,60.47
2022-09-22T10:11:14.954Z,58.53
2022-09-22T10:16:26.273Z,58.98
2022-09-22T10:21:28.282Z,54.59
2022-09-22T10:26:32.158Z,55.96
2022-09-22T10:31:37.842Z,50.28
2022-09-22T10:36:45.100Z,49.87
2022-09-22T10:41:48.593Z,49.96
2022-09-22T10:47:16.911Z,50.16
2022-09-22T10:52:43.370Z,49.77
2022-09-22T10:57:56.236Z,55.06
2022-09-22T11:03:28.467Z,54.45
2022-09-22T11:09:01.775Z,52.31
2022-09-22T11:14:15.559Z,52.80
2022-09-22T11:19:47.539Z,53.42
2022-09-22T11:24:58.271Z,51.27
2022-09-22T11:30:21.649Z,51.22
2022-09-22T11:35:29.245Z,47.03
2022-09-22T11:46:47.354Z,42.80
2022-09-22T11:52:02.698Z,40.91
2022-09-22T11:57:11.198Z,42.31
2022-09-22T12:02:26.655Z,43.75
2022-09-22T12:07:37.010Z,44.74
2022-09-22T12:12:42.668Z,45.06
2022-09-22T12:17:59.698Z,45.28
2022-09-22T12:23:19.441Z,45.28
2022-09-22T12:28:28.064Z,48.32
2022-09-22T12:33:33.769Z,48.26
2022-09-22T12:38:35.597Z,45.30
2022-09-22T12:43:37.508Z,42.99
2022-09-22T12:48:39.218Z,44.25
2022-09-22T12:53:43.719Z,43.69
2022-09-22T12:58:46.058Z,43.68
2022-09-22T13:03:50.469Z,42.62
2022-09-22T13:08:54.821Z,43.29
2022-09-22T13:13:56.354Z,43.81
2022-09-22T13:18:59.554Z,43.01
2022-09-22T13:24:02.987Z,42.66
2022-09-22T13:29:17.292Z,43.33
2022-09-22T13:34:36.254Z,43.08
2022-09-22T13:39:46.926Z,42.95
2022-09-22T13:44:59.011Z,41.62
2022-09-22T13:50:06.982Z,40.66
2022-09-22T13:55:14.988Z,40.72
2022-09-22T14:00:26.408Z,40.94
2022-09-22T14:05:31.856Z,39.76
2022-09-22T14:10:34.117Z,41.49
2022-09-22T14:15:43.760Z,40.69
2022-09-22T14:20:46.776Z,40.91
2022-09-22T14:25:48.541Z,42.01
2022-09-22T14:30:51.067Z,44.74
2022-09-22T14:36:00.725Z,47.26
2022-09-22T14:41:03.143Z,46.70
2022-09-22T14:46:23.065Z,47.37
2022-09-22T14:56:59.202Z,47.75
2022-09-22T15:02:20.670Z,47.52
2022-09-22T15:07:31.473Z,46.98
2022-09-22T15:12:39.075Z,47.63
2022-09-22T15:18:01.378Z,48.20
2022-09-22T15:23:03.444Z,48.15
2022-09-22T15:28:11.186Z,49.00
2022-09-22T15:33:15.546Z,49.39
2022-09-22T15:38:21.537Z,49.39
2022-09-22T15:43:29.407Z,48.79
2022-09-22T15:48:37.017Z,51.19
2022-09-22T15:53:40.370Z,51.32
2022-09-22T15:58:43.888Z,51.74
2022-09-22T16:03:46.588Z,52.56
2022-09-22T16:08:51.462Z,50.79
2022-09-22T16:13:53.174Z,50.50
2022-09-22T16:18:58.782Z,51.73
2022-09-22T16:24:03.915Z,53.78
2022-09-22T16:29:07.582Z,55.34
2022-09-22T16:34:10.832Z,56.50
2022-09-22T16:39:12.551Z,57.67
2022-09-22T16:44:15.735Z,59.33
2022-09-22T16:49:20.072Z,64.15
2022-09-22T16:54:21.960Z,64.03
2022-09-22T16:59:23.851Z,64.88
2022-09-22T17:04:25.630Z,65.75
2022-09-22T17:09:27.422Z,67.54
2022-09-22T17:14:30.480Z,69.24
2022-09-22T17:19:32.891Z,70.54
2022-09-22T17:24:34.537Z,74.03
2022-09-22T17:29:36.292Z,73.31
2022-09-22T17:34:38.499Z,73.22
2022-09-22T17:39:40.190Z,73.83
2022-09-22T17:44:41.865Z,73.65
2022-09-22T17:50:02.065Z,74.89
2022-09-22T17:55:11.761Z,76.12
2022-09-22T18:00:17.187Z,78.39
2022-09-22T18:05:21.417Z,78.04
2022-09-22T18:10:26.317Z,78.15
2022-09-22T18:15:29.281Z,78.70
2022-09-22T18:20:32.026Z,81.24
2022-09-22T18:25:34.125Z,82.73
2022-09-22T18:30:36.601Z,83.69
2022-09-22T18:35:38.192Z,82.77
2022-09-22T18:40:41.200Z,82.07
2022-09-22T18:45:43.357Z,82.52
2022-09-22T18:50:45.868Z,83.21
2022-09-22T18:55:48.429Z,83.59
2022-09-22T19:00:52.058Z,82.85
2022-09-22T19:05:53.637Z,83.51
2022-09-22T19:10:55.170Z,84.73
2022-09-22T19:15:58.750Z,87.66
2022-09-22T19:21:03.762Z,87.97
2022-09-22T19:26:05.913Z,89.60
2022-09-22T19:51:37.501Z,92.17
2022-09-22T19:57:18.443Z,92.43
2022-09-22T20:02:27.687Z,93.87
2022-09-22T20:07:29.417Z,93.67
2022-09-22T20:12:31.054Z,94.15
2022-09-22T20:17:32.792Z,94.30
2022-09-22T20:22:35.858Z,96.12
2022-09-22T20:27:41.209Z,97.32
2022-09-22T20:33:38.028Z,97.37
2022-09-22T20:39:02.699Z,97.15
2022-09-22T20:52:29.241Z,96.18
2022-09-22T20:58:17.363Z,97.30
2022-09-22T22:48:36.579Z,99.01
2022-09-22T22:53:38.628Z,98.67
2022-09-22T22:58:41.675Z,100.00
2022-09-22T23:03:49.239Z,100.00
2022-09-22T23:08:52.094Z,99.54
2022-09-22T23:13:56.243Z,97.43
2022-09-22T23:18:59.717Z,99.09
2022-09-22T23:24:03.656Z,99.87
2022-09-22T23:29:06.794Z,100.00
2022-09-22T23:34:08.610Z,100.00
2022-09-22T23:39:11.611Z,100.00
2022-09-22T23:44:13.623Z,100.00
2022-09-22T23:49:15.212Z,99.76
2022-09-22T23:54:16.751Z,97.32
2022-09-22T23:59:18.280Z,100.00
